createdAt,value
2018-01-31T21:33:05.789Z,954.83
2018-01-31T21:34:05.537Z,954.94
2018-01-31T21:35:05.482Z,954.88
2018-01-31T21:36:05.454Z,954.83
2018-01-31T21:37:05.420Z,954.84
2018-01-31T21:38:05.384Z,954.84
2018-01-31T21:39:05.385Z,954.77
2018-01-31T21:40:05.322Z,954.77
2018-01-31T21:41:05.284Z,954.79
2018-01-31T21:42:05.252Z,954.78
2018-01-31T21:43:05.218Z,954.75
2018-01-31T21:44:05.217Z,954.69
2018-01-31T21:45:05.157Z,954.68
2018-01-31T21:46:05.123Z,954.57
2018-01-31T21:47:05.089Z,954.67
2018-01-31T21:48:05.059Z,954.53
2018-01-31T21:49:05.056Z,954.55
2018-01-31T21:50:04.987Z,954.58
2018-01-31T21:51:04.963Z,954.49
2018-01-31T21:52:04.925Z,954.48
2018-01-31T21:53:04.889Z,954.53
2018-01-31T21:54:04.889Z,954.59
2018-01-31T21:55:04.824Z,954.57
2018-01-31T21:56:04.789Z,954.64
2018-01-31T21:57:04.762Z,954.74
2018-01-31T21:58:04.730Z,954.86
2018-01-31T21:59:04.724Z,954.60
2018-01-31T22:00:04.661Z,954.61
2018-01-31T22:01:04.626Z,954.72
2018-01-31T22:02:04.596Z,954.76
2018-01-31T22:03:04.563Z,954.69
2018-01-31T22:04:04.532Z,954.69
2018-01-31T22:05:04.520Z,954.72
2018-01-31T22:06:04.461Z,954.84
2018-01-31T22:07:04.425Z,954.81
2018-01-31T22:08:04.398Z,954.68
2018-01-31T22:09:04.365Z,954.75
2018-01-31T22:10:04.350Z,954.71
2018-01-31T22:11:04.298Z,954.75
2018-01-31T22:12:04.266Z,954.71
2018-01-31T22:13:04.228Z,954.66
2018-01-31T22:14:04.202Z,954.62
2018-01-31T22:15:04.163Z,954.58
2018-01-31T22:16:04.160Z,954.66
2018-01-31T22:17:04.098Z,954.59
2018-01-31T22:18:04.067Z,954.60
2018-01-31T22:19:04.038Z,954.63
2018-01-31T22:20:03.997Z,954.63
2018-01-31T22:21:03.970Z,954.58
2018-01-31T22:22:03.973Z,954.55
2018-01-31T22:23:03.904Z,954.46
2018-01-31T22:24:03.864Z,954.58
2018-01-31T22:25:03.834Z,954.39
2018-01-31T22:26:03.832Z,954.51
2018-01-31T22:27:03.767Z,954.47
2018-01-31T22:28:03.732Z,954.59
2018-01-31T22:29:03.701Z,954.49
2018-01-31T22:30:03.670Z,954.46
2018-01-31T22:31:03.778Z,954.36
2018-01-31T22:32:03.601Z,954.40
2018-01-31T22:33:03.567Z,954.34
2018-01-31T22:34:03.540Z,954.40
2018-01-31T22:35:03.503Z,954.57
2018-01-31T22:36:03.474Z,954.38
2018-01-31T22:37:03.472Z,954.36
2018-01-31T22:38:03.406Z,954.38
2018-01-31T22:39:03.374Z,954.48
2018-01-31T22:40:03.341Z,954.47
2018-01-31T22:41:03.304Z,954.38
2018-01-31T22:42:03.274Z,954.58
2018-01-31T22:43:03.270Z,954.51
2018-01-31T22:44:03.205Z,954.63
2018-01-31T22:45:03.175Z,954.67
2018-01-31T22:46:03.140Z,954.63
2018-01-31T22:47:03.142Z,954.63
2018-01-31T22:48:03.074Z,954.59
2018-01-31T22:49:03.040Z,954.63
2018-01-31T22:50:03.008Z,954.52
2018-01-31T22:51:02.974Z,954.64
2018-01-31T22:52:02.939Z,954.62
2018-01-31T22:53:02.941Z,954.61
2018-01-31T22:54:02.878Z,954.61
2018-01-31T22:55:02.849Z,954.61
2018-01-31T22:56:02.812Z,954.56
2018-01-31T22:57:02.779Z,954.66
2018-01-31T22:58:02.778Z,954.65
2018-01-31T22:59:02.710Z,954.67
2018-01-31T23:00:02.680Z,954.61
2018-01-31T23:01:02.648Z,954.58
2018-01-31T23:02:02.614Z,954.66
2018-01-31T23:03:02.610Z,954.65
2018-01-31T23:04:02.544Z,954.61
2018-01-31T23:05:02.514Z,954.63
2018-01-31T23:07:35.468Z,954.59
2018-01-31T23:08:35.599Z,954.56
2018-01-31T23:09:35.415Z,954.56
2018-01-31T23:10:35.367Z,954.52
2018-01-31T23:11:35.337Z,954.49
2018-01-31T23:12:35.305Z,954.50
2018-01-31T23:13:35.268Z,954.41
2018-01-31T23:14:35.259Z,954.50
2018-01-31T23:15:35.207Z,954.29
2018-01-31T23:16:35.173Z,954.40
2018-01-31T23:17:35.139Z,954.56
2018-01-31T23:18:35.106Z,954.42
2018-01-31T23:19:35.068Z,954.35
2018-01-31T23:20:35.074Z,954.35
2018-01-31T23:21:35.009Z,954.42
2018-01-31T23:22:34.971Z,954.48
2018-01-31T23:23:34.938Z,954.32
2018-01-31T23:24:34.933Z,954.34
2018-01-31T23:25:34.877Z,954.38
2018-01-31T23:26:34.838Z,954.42
2018-01-31T23:27:34.809Z,954.31
2018-01-31T23:28:34.772Z,954.26
2018-01-31T23:29:34.774Z,954.22
2018-01-31T23:30:34.706Z,954.24
2018-01-31T23:31:34.673Z,954.35
2018-01-31T23:32:34.639Z,954.30
2018-01-31T23:33:34.612Z,954.29
2018-01-31T23:34:34.597Z,954.26
2018-01-31T23:35:34.540Z,954.31
2018-01-31T23:36:34.510Z,954.26
2018-01-31T23:37:34.476Z,954.22
2018-01-31T23:38:34.444Z,954.25
2018-01-31T23:39:34.413Z,954.20
2018-01-31T23:40:34.413Z,954.25
2018-01-31T23:41:34.346Z,954.20
2018-01-31T23:42:34.313Z,954.15
2018-01-31T23:43:34.274Z,954.19
2018-01-31T23:44:34.247Z,954.16
2018-01-31T23:45:34.244Z,954.19
2018-01-31T23:46:34.181Z,954.07
2018-01-31T23:47:34.142Z,954.13
2018-01-31T23:48:34.111Z,954.12
2018-01-31T23:49:34.080Z,954.04
2018-01-31T23:50:34.080Z,954.16
2018-01-31T23:51:34.014Z,954.11
2018-01-31T23:52:33.984Z,954.11
2018-01-31T23:53:33.949Z,954.03
2018-01-31T23:54:33.915Z,954.00
2018-01-31T23:55:33.880Z,954.10
2018-01-31T23:56:33.868Z,954.11
2018-01-31T23:57:33.815Z,954.01
2018-01-31T23:58:33.782Z,953.87
2018-01-31T23:59:33.750Z,953.97
